sensor_id;sensor_type;location;lat;lon;timestamp;P1;durP1;ratioP1;P2;durP2;ratioP2
19225;SDS011;9747;48.536;12.522;2023-07-24T00:00:40;3.15;;;2.85;;
19225;SDS011;9747;48.536;12.522;2023-07-24T00:03:07;3.45;;;2.95;;
19225;SDS011;9747;48.536;12.522;2023-07-24T00:05:35;3.60;;;3.30;;
19225;SDS011;9747;48.536;12.522;2023-07-24T00:08:02;4.38;;;3.10;;
19225;SDS011;9747;48.536;12.522;2023-07-24T00:10:32;4.20;;;2.92;;
19225;SDS011;9747;48.536;12.522;2023-07-24T00:12:59;3.63;;;3.15;;
19225;SDS011;9747;48.536;12.522;2023-07-24T00:15:28;3.65;;;3.03;;
19225;SDS011;9747;48.536;12.522;2023-07-24T00:17:55;3.50;;;3.20;;
19225;SDS011;9747;48.536;12.522;2023-07-24T00:20:23;3.22;;;2.92;;
19225;SDS011;9747;48.536;12.522;2023-07-24T00:22:51;3.22;;;2.92;;
19225;SDS011;9747;48.536;12.522;2023-07-24T00:25:18;3.42;;;3.13;;
19225;SDS011;9747;48.536;12.522;2023-07-24T00:27:47;3.47;;;3.17;;
19225;SDS011;9747;48.536;12.522;2023-07-24T00:30:14;3.40;;;3.10;;
19225;SDS011;9747;48.536;12.522;2023-07-24T00:32:42;3.50;;;3.20;;
19225;SDS011;9747;48.536;12.522;2023-07-24T00:35:10;3.30;;;2.95;;
19225;SDS011;9747;48.536;12.522;2023-07-24T00:37:37;3.97;;;3.50;;
19225;SDS011;9747;48.536;12.522;2023-07-24T00:40:06;3.65;;;3.35;;
19225;SDS011;9747;48.536;12.522;2023-07-24T00:42:35;3.67;;;3.17;;
19225;SDS011;9747;48.536;12.522;2023-07-24T00:45:04;3.85;;;3.08;;
19225;SDS011;9747;48.536;12.522;2023-07-24T00:47:34;3.10;;;2.80;;
19225;SDS011;9747;48.536;12.522;2023-07-24T00:50:01;4.15;;;3.45;;
19225;SDS011;9747;48.536;12.522;2023-07-24T00:52:29;3.53;;;2.97;;
19225;SDS011;9747;48.536;12.522;2023-07-24T00:54:57;3.42;;;3.13;;
19225;SDS011;9747;48.536;12.522;2023-07-24T00:57:25;5.85;;;3.30;;
19225;SDS011;9747;48.536;12.522;2023-07-24T00:59:53;3.38;;;3.08;;
19225;SDS011;9747;48.536;12.522;2023-07-24T01:02:22;4.63;;;3.63;;
19225;SDS011;9747;48.536;12.522;2023-07-24T01:04:49;3.70;;;3.28;;
19225;SDS011;9747;48.536;12.522;2023-07-24T01:07:19;3.35;;;3.05;;
19225;SDS011;9747;48.536;12.522;2023-07-24T01:09:47;3.80;;;3.17;;
19225;SDS011;9747;48.536;12.522;2023-07-24T01:12:18;3.05;;;2.78;;
19225;SDS011;9747;48.536;12.522;2023-07-24T01:14:49;3.33;;;3.03;;
19225;SDS011;9747;48.536;12.522;2023-07-24T01:17:24;3.58;;;3.28;;
19225;SDS011;9747;48.536;12.522;2023-07-24T01:19:52;4.78;;;3.75;;
19225;SDS011;9747;48.536;12.522;2023-07-24T01:22:25;3.83;;;3.42;;
19225;SDS011;9747;48.536;12.522;2023-07-24T01:25:09;3.20;;;2.90;;
19225;SDS011;9747;48.536;12.522;2023-07-24T01:27:43;3.60;;;3.25;;
19225;SDS011;9747;48.536;12.522;2023-07-24T01:30:12;4.35;;;3.20;;
19225;SDS011;9747;48.536;12.522;2023-07-24T01:32:46;3.55;;;3.00;;
19225;SDS011;9747;48.536;12.522;2023-07-24T01:35:15;3.25;;;2.97;;
19225;SDS011;9747;48.536;12.522;2023-07-24T01:37:43;4.90;;;3.08;;
19225;SDS011;9747;48.536;12.522;2023-07-24T01:40:11;4.82;;;3.58;;
19225;SDS011;9747;48.536;12.522;2023-07-24T01:42:39;3.60;;;3.22;;
19225;SDS011;9747;48.536;12.522;2023-07-24T01:45:08;3.90;;;3.50;;
19225;SDS011;9747;48.536;12.522;2023-07-24T01:47:38;4.13;;;3.30;;
19225;SDS011;9747;48.536;12.522;2023-07-24T01:50:06;3.78;;;3.10;;
19225;SDS011;9747;48.536;12.522;2023-07-24T01:52:34;3.13;;;2.85;;
19225;SDS011;9747;48.536;12.522;2023-07-24T01:55:01;3.55;;;3.17;;
19225;SDS011;9747;48.536;12.522;2023-07-24T01:57:29;4.05;;;3.17;;
19225;SDS011;9747;48.536;12.522;2023-07-24T01:59:57;3.42;;;3.13;;
19225;SDS011;9747;48.536;12.522;2023-07-24T02:02:26;3.10;;;2.83;;
19225;SDS011;9747;48.536;12.522;2023-07-24T02:04:54;3.92;;;3.08;;
19225;SDS011;9747;48.536;12.522;2023-07-24T02:07:21;3.50;;;3.20;;
19225;SDS011;9747;48.536;12.522;2023-07-24T02:09:49;3.30;;;3.00;;
19225;SDS011;9747;48.536;12.522;2023-07-24T02:12:17;3.80;;;3.35;;
19225;SDS011;9747;48.536;12.522;2023-07-24T02:14:44;3.50;;;3.20;;
19225;SDS011;9747;48.536;12.522;2023-07-24T02:17:14;3.53;;;3.20;;
19225;SDS011;9747;48.536;12.522;2023-07-24T02:19:43;3.55;;;3.25;;
19225;SDS011;9747;48.536;12.522;2023-07-24T02:22:11;3.35;;;3.05;;
19225;SDS011;9747;48.536;12.522;2023-07-24T02:24:39;3.97;;;3.33;;
19225;SDS011;9747;48.536;12.522;2023-07-24T02:27:06;3.80;;;3.40;;
19225;SDS011;9747;48.536;12.522;2023-07-24T02:29:34;3.95;;;3.35;;
19225;SDS011;9747;48.536;12.522;2023-07-24T02:32:01;3.25;;;3.00;;
19225;SDS011;9747;48.536;12.522;2023-07-24T02:34:29;3.67;;;3.38;;
19225;SDS011;9747;48.536;12.522;2023-07-24T02:36:58;3.70;;;3.10;;
19225;SDS011;9747;48.536;12.522;2023-07-24T02:39:25;3.55;;;3.25;;
19225;SDS011;9747;48.536;12.522;2023-07-24T02:41:53;3.50;;;3.20;;
19225;SDS011;9747;48.536;12.522;2023-07-24T02:44:20;3.58;;;3.28;;
19225;SDS011;9747;48.536;12.522;2023-07-24T02:46:48;3.30;;;3.00;;
19225;SDS011;9747;48.536;12.522;2023-07-24T02:49:15;4.95;;;3.58;;
19225;SDS011;9747;48.536;12.522;2023-07-24T02:51:42;3.53;;;3.22;;
19225;SDS011;9747;48.536;12.522;2023-07-24T02:54:11;5.38;;;3.58;;
19225;SDS011;9747;48.536;12.522;2023-07-24T02:56:39;3.55;;;3.25;;
19225;SDS011;9747;48.536;12.522;2023-07-24T02:59:06;3.70;;;3.08;;
19225;SDS011;9747;48.536;12.522;2023-07-24T03:01:33;3.85;;;3.10;;
19225;SDS011;9747;48.536;12.522;2023-07-24T03:04:01;4.18;;;3.78;;
19225;SDS011;9747;48.536;12.522;2023-07-24T03:06:30;3.67;;;3.38;;
19225;SDS011;9747;48.536;12.522;2023-07-24T03:08:58;3.90;;;3.22;;
19225;SDS011;9747;48.536;12.522;2023-07-24T03:11:27;3.63;;;3.33;;
19225;SDS011;9747;48.536;12.522;2023-07-24T03:13:54;3.67;;;3.22;;
19225;SDS011;9747;48.536;12.522;2023-07-24T03:16:22;4.47;;;3.60;;
19225;SDS011;9747;48.536;12.522;2023-07-24T03:18:49;3.30;;;3.00;;
19225;SDS011;9747;48.536;12.522;2023-07-24T03:21:17;3.60;;;3.30;;
19225;SDS011;9747;48.536;12.522;2023-07-24T03:23:45;4.32;;;3.28;;
19225;SDS011;9747;48.536;12.522;2023-07-24T03:26:12;3.83;;;3.40;;
19225;SDS011;9747;48.536;12.522;2023-07-24T03:28:41;3.83;;;3.30;;
19225;SDS011;9747;48.536;12.522;2023-07-24T03:31:09;3.50;;;3.20;;
19225;SDS011;9747;48.536;12.522;2023-07-24T03:33:37;3.65;;;3.22;;
19225;SDS011;9747;48.536;12.522;2023-07-24T03:36:05;4.70;;;3.53;;
19225;SDS011;9747;48.536;12.522;2023-07-24T03:38:33;3.90;;;3.53;;
19225;SDS011;9747;48.536;12.522;2023-07-24T03:41:00;3.67;;;3.33;;
19225;SDS011;9747;48.536;12.522;2023-07-24T03:43:29;4.20;;;3.50;;
19225;SDS011;9747;48.536;12.522;2023-07-24T03:45:58;3.67;;;3.20;;
19225;SDS011;9747;48.536;12.522;2023-07-24T03:48:25;3.65;;;3.30;;
19225;SDS011;9747;48.536;12.522;2023-07-24T03:50:57;3.30;;;3.00;;
19225;SDS011;9747;48.536;12.522;2023-07-24T03:53:26;3.70;;;3.40;;
19225;SDS011;9747;48.536;12.522;2023-07-24T03:55:53;3.80;;;3.40;;
19225;SDS011;9747;48.536;12.522;2023-07-24T03:58:21;3.50;;;3.20;;
19225;SDS011;9747;48.536;12.522;2023-07-24T04:00:48;3.75;;;3.42;;
19225;SDS011;9747;48.536;12.522;2023-07-24T04:03:17;4.15;;;3.53;;
19225;SDS011;9747;48.536;12.522;2023-07-24T04:05:45;4.07;;;3.70;;
19225;SDS011;9747;48.536;12.522;2023-07-24T04:08:12;4.10;;;3.70;;
19225;SDS011;9747;48.536;12.522;2023-07-24T04:10:40;4.15;;;3.75;;
19225;SDS011;9747;48.536;12.522;2023-07-24T04:13:07;4.75;;;3.42;;
19225;SDS011;9747;48.536;12.522;2023-07-24T04:15:34;3.60;;;3.20;;
19225;SDS011;9747;48.536;12.522;2023-07-24T04:18:03;3.70;;;3.40;;
19225;SDS011;9747;48.536;12.522;2023-07-24T04:20:32;3.65;;;3.35;;
19225;SDS011;9747;48.536;12.522;2023-07-24T04:22:59;4.05;;;3.42;;
19225;SDS011;9747;48.536;12.522;2023-07-24T04:25:27;3.35;;;3.05;;
19225;SDS011;9747;48.536;12.522;2023-07-24T04:27:54;3.88;;;3.45;;
19225;SDS011;9747;48.536;12.522;2023-07-24T04:30:21;3.92;;;3.53;;
19225;SDS011;9747;48.536;12.522;2023-07-24T04:32:49;3.40;;;3.10;;
19225;SDS011;9747;48.536;12.522;2023-07-24T04:35:16;3.58;;;3.28;;
19225;SDS011;9747;48.536;12.522;2023-07-24T04:37:46;3.67;;;3.25;;
19225;SDS011;9747;48.536;12.522;2023-07-24T04:40:13;4.03;;;3.63;;
19225;SDS011;9747;48.536;12.522;2023-07-24T04:42:41;3.47;;;3.17;;
19225;SDS011;9747;48.536;12.522;2023-07-24T04:45:08;3.42;;;3.13;;
19225;SDS011;9747;48.536;12.522;2023-07-24T04:47:36;4.07;;;3.50;;
19225;SDS011;9747;48.536;12.522;2023-07-24T04:50:04;4.78;;;3.67;;
19225;SDS011;9747;48.536;12.522;2023-07-24T04:52:33;4.03;;;3.55;;
19225;SDS011;9747;48.536;12.522;2023-07-24T04:55:01;3.47;;;3.13;;
19225;SDS011;9747;48.536;12.522;2023-07-24T04:57:29;4.13;;;3.72;;
19225;SDS011;9747;48.536;12.522;2023-07-24T04:59:57;3.42;;;3.13;;
19225;SDS011;9747;48.536;12.522;2023-07-24T05:02:24;3.88;;;3.40;;
19225;SDS011;9747;48.536;12.522;2023-07-24T05:04:51;4.03;;;3.63;;
19225;SDS011;9747;48.536;12.522;2023-07-24T05:07:19;4.13;;;3.72;;
19225;SDS011;9747;48.536;12.522;2023-07-24T05:09:46;4.15;;;3.75;;
19225;SDS011;9747;48.536;12.522;2023-07-24T05:12:15;3.97;;;3.58;;
19225;SDS011;9747;48.536;12.522;2023-07-24T05:14:43;3.78;;;3.38;;
19225;SDS011;9747;48.536;12.522;2023-07-24T05:17:10;4.20;;;3.55;;
19225;SDS011;9747;48.536;12.522;2023-07-24T05:19:38;4.10;;;3.53;;
19225;SDS011;9747;48.536;12.522;2023-07-24T05:22:05;3.88;;;3.47;;
19225;SDS011;9747;48.536;12.522;2023-07-24T05:24:35;4.50;;;3.85;;
19225;SDS011;9747;48.536;12.522;2023-07-24T05:27:03;3.60;;;3.30;;
19225;SDS011;9747;48.536;12.522;2023-07-24T05:29:32;4.38;;;3.58;;
19225;SDS011;9747;48.536;12.522;2023-07-24T05:32:00;3.80;;;3.50;;
19225;SDS011;9747;48.536;12.522;2023-07-24T05:34:27;3.78;;;3.40;;
19225;SDS011;9747;48.536;12.522;2023-07-24T05:36:54;3.97;;;3.58;;
19225;SDS011;9747;48.536;12.522;2023-07-24T05:39:22;3.92;;;3.60;;
19225;SDS011;9747;48.536;12.522;2023-07-24T05:41:50;4.07;;;3.67;;
19225;SDS011;9747;48.536;12.522;2023-07-24T05:44:17;4.00;;;3.60;;
19225;SDS011;9747;48.536;12.522;2023-07-24T05:46:46;4.63;;;3.78;;
19225;SDS011;9747;48.536;12.522;2023-07-24T05:49:13;4.53;;;3.92;;
19225;SDS011;9747;48.536;12.522;2023-07-24T05:51:41;4.18;;;3.58;;
19225;SDS011;9747;48.536;12.522;2023-07-24T05:54:08;4.30;;;3.80;;
19225;SDS011;9747;48.536;12.522;2023-07-24T05:56:36;4.18;;;3.72;;
19225;SDS011;9747;48.536;12.522;2023-07-24T05:59:03;4.10;;;3.67;;
19225;SDS011;9747;48.536;12.522;2023-07-24T06:01:31;4.03;;;3.63;;
19225;SDS011;9747;48.536;12.522;2023-07-24T06:04:00;4.63;;;3.72;;
19225;SDS011;9747;48.536;12.522;2023-07-24T06:06:27;4.20;;;3.67;;
19225;SDS011;9747;48.536;12.522;2023-07-24T06:08:54;4.40;;;4.00;;
19225;SDS011;9747;48.536;12.522;2023-07-24T06:11:22;4.20;;;3.80;;
19225;SDS011;9747;48.536;12.522;2023-07-24T06:13:51;4.07;;;3.67;;
19225;SDS011;9747;48.536;12.522;2023-07-24T06:16:19;4.57;;;3.88;;
19225;SDS011;9747;48.536;12.522;2023-07-24T06:18:46;4.47;;;3.60;;
19225;SDS011;9747;48.536;12.522;2023-07-24T06:21:15;4.60;;;3.80;;
19225;SDS011;9747;48.536;12.522;2023-07-24T06:23:42;4.25;;;3.75;;
19225;SDS011;9747;48.536;12.522;2023-07-24T06:26:10;3.92;;;3.60;;
19225;SDS011;9747;48.536;12.522;2023-07-24T06:28:37;3.55;;;3.25;;
19225;SDS011;9747;48.536;12.522;2023-07-24T06:31:04;3.63;;;3.33;;
19225;SDS011;9747;48.536;12.522;2023-07-24T06:33:32;4.10;;;3.70;;
19225;SDS011;9747;48.536;12.522;2023-07-24T06:35:59;4.00;;;3.42;;
19225;SDS011;9747;48.536;12.522;2023-07-24T06:38:28;4.47;;;4.07;;
19225;SDS011;9747;48.536;12.522;2023-07-24T06:40:56;4.22;;;3.83;;
19225;SDS011;9747;48.536;12.522;2023-07-24T06:43:23;4.10;;;3.70;;
19225;SDS011;9747;48.536;12.522;2023-07-24T06:45:51;4.53;;;4.10;;
19225;SDS011;9747;48.536;12.522;2023-07-24T06:48:18;4.22;;;3.83;;
19225;SDS011;9747;48.536;12.522;2023-07-24T06:50:46;4.03;;;3.63;;
19225;SDS011;9747;48.536;12.522;2023-07-24T06:53:13;4.03;;;3.63;;
19225;SDS011;9747;48.536;12.522;2023-07-24T06:55:42;4.07;;;3.67;;
19225;SDS011;9747;48.536;12.522;2023-07-24T06:58:09;4.43;;;3.92;;
19225;SDS011;9747;48.536;12.522;2023-07-24T07:00:37;5.05;;;4.05;;
19225;SDS011;9747;48.536;12.522;2023-07-24T07:03:04;4.13;;;3.72;;
19225;SDS011;9747;48.536;12.522;2023-07-24T07:05:32;3.92;;;3.38;;
19225;SDS011;9747;48.536;12.522;2023-07-24T07:07:59;4.40;;;3.97;;
19225;SDS011;9747;48.536;12.522;2023-07-24T07:10:27;5.50;;;4.20;;
19225;SDS011;9747;48.536;12.522;2023-07-24T07:12:55;4.28;;;3.88;;
19225;SDS011;9747;48.536;12.522;2023-07-24T07:15:23;4.63;;;3.92;;
19225;SDS011;9747;48.536;12.522;2023-07-24T07:17:50;4.75;;;3.90;;
19225;SDS011;9747;48.536;12.522;2023-07-24T07:20:18;4.15;;;3.75;;
19225;SDS011;9747;48.536;12.522;2023-07-24T07:22:45;3.97;;;3.58;;
19225;SDS011;9747;48.536;12.522;2023-07-24T07:25:13;4.43;;;3.80;;
19225;SDS011;9747;48.536;12.522;2023-07-24T07:27:40;4.63;;;3.97;;
19225;SDS011;9747;48.536;12.522;2023-07-24T07:30:09;4.32;;;3.72;;
19225;SDS011;9747;48.536;12.522;2023-07-24T07:40:14;5.13;;;4.30;;
19225;SDS011;9747;48.536;12.522;2023-07-24T07:42:42;4.28;;;3.88;;
19225;SDS011;9747;48.536;12.522;2023-07-24T07:45:11;4.07;;;3.67;;
19225;SDS011;9747;48.536;12.522;2023-07-24T07:47:39;4.38;;;3.97;;
19225;SDS011;9747;48.536;12.522;2023-07-24T07:50:06;4.47;;;4.07;;
19225;SDS011;9747;48.536;12.522;2023-07-24T07:52:34;4.75;;;4.13;;
19225;SDS011;9747;48.536;12.522;2023-07-24T07:55:02;4.50;;;4.07;;
19225;SDS011;9747;48.536;12.522;2023-07-24T07:57:31;6.35;;;4.50;;
19225;SDS011;9747;48.536;12.522;2023-07-24T08:00:00;5.15;;;4.07;;
19225;SDS011;9747;48.536;12.522;2023-07-24T08:02:31;4.93;;;4.40;;
19225;SDS011;9747;48.536;12.522;2023-07-24T08:04:59;5.43;;;4.13;;
19225;SDS011;9747;48.536;12.522;2023-07-24T08:07:26;4.30;;;3.90;;
19225;SDS011;9747;48.536;12.522;2023-07-24T08:09:54;4.60;;;4.15;;
19225;SDS011;9747;48.536;12.522;2023-07-24T08:12:21;4.72;;;4.10;;
19225;SDS011;9747;48.536;12.522;2023-07-24T08:14:49;5.40;;;4.60;;
19225;SDS011;9747;48.536;12.522;2023-07-24T08:17:16;4.65;;;4.15;;
19225;SDS011;9747;48.536;12.522;2023-07-24T08:19:46;4.47;;;3.97;;
19225;SDS011;9747;48.536;12.522;2023-07-24T08:22:13;4.28;;;3.88;;
19225;SDS011;9747;48.536;12.522;2023-07-24T08:24:41;4.72;;;3.97;;
19225;SDS011;9747;48.536;12.522;2023-07-24T08:27:10;4.70;;;4.07;;
19225;SDS011;9747;48.536;12.522;2023-07-24T08:29:37;4.72;;;4.22;;
19225;SDS011;9747;48.536;12.522;2023-07-24T08:32:04;4.90;;;4.38;;
19225;SDS011;9747;48.536;12.522;2023-07-24T08:34:33;4.55;;;4.15;;
19225;SDS011;9747;48.536;12.522;2023-07-24T08:37:01;4.82;;;4.00;;
19225;SDS011;9747;48.536;12.522;2023-07-24T08:39:30;4.63;;;3.97;;
19225;SDS011;9747;48.536;12.522;2023-07-24T08:41:57;4.95;;;4.43;;
19225;SDS011;9747;48.536;12.522;2023-07-24T08:44:25;4.32;;;3.92;;
19225;SDS011;9747;48.536;12.522;2023-07-24T08:46:52;4.28;;;3.70;;
19225;SDS011;9747;48.536;12.522;2023-07-24T08:49:19;5.65;;;4.20;;
19225;SDS011;9747;48.536;12.522;2023-07-24T08:51:47;5.15;;;4.38;;
19225;SDS011;9747;48.536;12.522;2023-07-24T08:54:16;3.92;;;3.55;;
19225;SDS011;9747;48.536;12.522;2023-07-24T08:56:43;5.20;;;4.35;;
19225;SDS011;9747;48.536;12.522;2023-07-24T08:59:13;5.63;;;4.13;;
19225;SDS011;9747;48.536;12.522;2023-07-24T09:01:41;4.32;;;3.92;;
19225;SDS011;9747;48.536;12.522;2023-07-24T09:04:08;4.10;;;3.70;;
19225;SDS011;9747;48.536;12.522;2023-07-24T09:06:36;4.22;;;3.75;;
19225;SDS011;9747;48.536;12.522;2023-07-24T09:09:11;4.85;;;4.35;;
19225;SDS011;9747;48.536;12.522;2023-07-24T09:11:48;3.88;;;3.58;;
19225;SDS011;9747;48.536;12.522;2023-07-24T09:14:20;4.22;;;3.83;;
19225;SDS011;9747;48.536;12.522;2023-07-24T09:17:01;4.75;;;4.20;;
19225;SDS011;9747;48.536;12.522;2023-07-24T09:19:30;4.38;;;3.97;;
19225;SDS011;9747;48.536;12.522;2023-07-24T09:22:06;4.25;;;3.85;;
19225;SDS011;9747;48.536;12.522;2023-07-24T09:24:36;4.15;;;3.75;;
19225;SDS011;9747;48.536;12.522;2023-07-24T09:27:06;5.05;;;3.97;;
19225;SDS011;9747;48.536;12.522;2023-07-24T09:29:35;4.10;;;3.70;;
19225;SDS011;9747;48.536;12.522;2023-07-24T09:32:02;4.07;;;3.67;;
19225;SDS011;9747;48.536;12.522;2023-07-24T09:34:31;4.03;;;3.65;;
19225;SDS011;9747;48.536;12.522;2023-07-24T09:36:59;4.63;;;4.07;;
19225;SDS011;9747;48.536;12.522;2023-07-24T09:39:26;4.07;;;3.67;;
19225;SDS011;9747;48.536;12.522;2023-07-24T09:42:02;4.97;;;4.10;;
19225;SDS011;9747;48.536;12.522;2023-07-24T09:44:31;4.60;;;4.00;;
19225;SDS011;9747;48.536;12.522;2023-07-24T09:46:59;4.03;;;3.53;;
19225;SDS011;9747;48.536;12.522;2023-07-24T09:49:27;3.90;;;3.60;;
19225;SDS011;9747;48.536;12.522;2023-07-24T09:51:54;4.25;;;3.85;;
19225;SDS011;9747;48.536;12.522;2023-07-24T09:54:25;3.95;;;3.53;;
19225;SDS011;9747;48.536;12.522;2023-07-24T09:56:56;3.90;;;3.50;;
19225;SDS011;9747;48.536;12.522;2023-07-24T09:59:24;3.92;;;3.47;;
19225;SDS011;9747;48.536;12.522;2023-07-24T10:01:54;4.03;;;3.63;;
19225;SDS011;9747;48.536;12.522;2023-07-24T10:04:22;4.00;;;3.60;;
19225;SDS011;9747;48.536;12.522;2023-07-24T10:06:50;3.90;;;3.50;;
19225;SDS011;9747;48.536;12.522;2023-07-24T10:09:18;4.03;;;3.63;;
19225;SDS011;9747;48.536;12.522;2023-07-24T10:11:48;3.72;;;3.42;;
19225;SDS011;9747;48.536;12.522;2023-07-24T10:14:15;3.90;;;3.33;;
19225;SDS011;9747;48.536;12.522;2023-07-24T10:16:44;4.03;;;3.42;;
19225;SDS011;9747;48.536;12.522;2023-07-24T10:19:16;3.55;;;3.25;;
19225;SDS011;9747;48.536;12.522;2023-07-24T10:21:46;3.72;;;3.40;;
19225;SDS011;9747;48.536;12.522;2023-07-24T10:24:14;3.63;;;3.33;;
19225;SDS011;9747;48.536;12.522;2023-07-24T10:26:41;4.03;;;3.63;;
19225;SDS011;9747;48.536;12.522;2023-07-24T10:29:09;4.60;;;3.83;;
19225;SDS011;9747;48.536;12.522;2023-07-24T10:31:38;3.80;;;3.42;;
19225;SDS011;9747;48.536;12.522;2023-07-24T10:34:05;3.40;;;3.10;;
19225;SDS011;9747;48.536;12.522;2023-07-24T10:36:35;3.40;;;3.10;;
19225;SDS011;9747;48.536;12.522;2023-07-24T10:39:12;3.30;;;3.00;;
19225;SDS011;9747;48.536;12.522;2023-07-24T10:41:41;3.90;;;3.53;;
19225;SDS011;9747;48.536;12.522;2023-07-24T10:44:10;3.75;;;3.33;;
19225;SDS011;9747;48.536;12.522;2023-07-24T10:46:37;3.60;;;3.25;;
19225;SDS011;9747;48.536;12.522;2023-07-24T10:49:07;3.42;;;3.13;;
19225;SDS011;9747;48.536;12.522;2023-07-24T10:51:36;3.47;;;3.17;;
19225;SDS011;9747;48.536;12.522;2023-07-24T10:54:04;4.57;;;3.83;;
19225;SDS011;9747;48.536;12.522;2023-07-24T10:56:32;4.47;;;3.70;;
19225;SDS011;9747;48.536;12.522;2023-07-24T10:59:02;3.38;;;3.08;;
19225;SDS011;9747;48.536;12.522;2023-07-24T11:01:31;4.10;;;3.63;;
19225;SDS011;9747;48.536;12.522;2023-07-24T11:03:58;3.60;;;3.30;;
19225;SDS011;9747;48.536;12.522;2023-07-24T11:06:26;4.05;;;3.65;;
19225;SDS011;9747;48.536;12.522;2023-07-24T11:08:56;3.50;;;3.20;;
19225;SDS011;9747;48.536;12.522;2023-07-24T11:11:28;3.35;;;3.03;;
19225;SDS011;9747;48.536;12.522;2023-07-24T11:13:56;4.13;;;3.72;;
19225;SDS011;9747;48.536;12.522;2023-07-24T11:16:25;3.85;;;3.45;;
19225;SDS011;9747;48.536;12.522;2023-07-24T11:18:52;3.58;;;3.28;;
19225;SDS011;9747;48.536;12.522;2023-07-24T11:21:20;3.30;;;3.00;;
19225;SDS011;9747;48.536;12.522;2023-07-24T11:23:50;3.55;;;3.25;;
19225;SDS011;9747;48.536;12.522;2023-07-24T11:26:20;3.20;;;2.90;;
19225;SDS011;9747;48.536;12.522;2023-07-24T11:28:49;3.40;;;3.10;;
19225;SDS011;9747;48.536;12.522;2023-07-24T11:31:17;3.50;;;3.20;;
19225;SDS011;9747;48.536;12.522;2023-07-24T11:33:45;3.50;;;3.20;;
19225;SDS011;9747;48.536;12.522;2023-07-24T11:36:13;3.45;;;3.15;;
19225;SDS011;9747;48.536;12.522;2023-07-24T11:38:41;3.75;;;3.30;;
19225;SDS011;9747;48.536;12.522;2023-07-24T11:41:10;3.70;;;3.22;;
19225;SDS011;9747;48.536;12.522;2023-07-24T11:43:45;3.47;;;3.10;;
19225;SDS011;9747;48.536;12.522;2023-07-24T11:46:22;3.22;;;2.92;;
19225;SDS011;9747;48.536;12.522;2023-07-24T11:48:50;3.75;;;3.28;;
19225;SDS011;9747;48.536;12.522;2023-07-24T11:51:18;3.42;;;3.13;;
19225;SDS011;9747;48.536;12.522;2023-07-24T11:53:46;3.45;;;3.15;;
19225;SDS011;9747;48.536;12.522;2023-07-24T11:56:14;3.67;;;3.35;;
19225;SDS011;9747;48.536;12.522;2023-07-24T11:58:43;3.17;;;2.88;;
19225;SDS011;9747;48.536;12.522;2023-07-24T12:01:12;3.40;;;3.10;;
19225;SDS011;9747;48.536;12.522;2023-07-24T12:03:39;3.28;;;2.90;;
19225;SDS011;9747;48.536;12.522;2023-07-24T12:06:13;3.20;;;3.00;;
19225;SDS011;9747;48.536;12.522;2023-07-24T12:08:41;3.70;;;3.40;;
19225;SDS011;9747;48.536;12.522;2023-07-24T12:11:15;3.60;;;3.30;;
19225;SDS011;9747;48.536;12.522;2023-07-24T12:13:43;3.00;;;2.78;;
19225;SDS011;9747;48.536;12.522;2023-07-24T12:16:12;3.17;;;2.88;;
19225;SDS011;9747;48.536;12.522;2023-07-24T12:18:39;2.90;;;2.70;;
19225;SDS011;9747;48.536;12.522;2023-07-24T12:21:07;3.20;;;2.88;;
19225;SDS011;9747;48.536;12.522;2023-07-24T12:23:34;3.28;;;2.97;;
19225;SDS011;9747;48.536;12.522;2023-07-24T12:26:01;3.60;;;3.00;;
19225;SDS011;9747;48.536;12.522;2023-07-24T12:28:29;3.05;;;2.85;;
19225;SDS011;9747;48.536;12.522;2023-07-24T12:30:58;3.15;;;2.85;;
19225;SDS011;9747;48.536;12.522;2023-07-24T12:33:25;3.10;;;2.90;;
19225;SDS011;9747;48.536;12.522;2023-07-24T12:35:52;3.50;;;3.10;;
19225;SDS011;9747;48.536;12.522;2023-07-24T12:38:20;2.95;;;2.75;;
19225;SDS011;9747;48.536;12.522;2023-07-24T12:40:47;3.40;;;3.10;;
19225;SDS011;9747;48.536;12.522;2023-07-24T12:43:15;3.53;;;2.90;;
19225;SDS011;9747;48.536;12.522;2023-07-24T12:45:42;3.28;;;2.97;;
19225;SDS011;9747;48.536;12.522;2023-07-24T12:48:11;3.05;;;2.85;;
19225;SDS011;9747;48.536;12.522;2023-07-24T12:50:38;3.05;;;2.75;;
19225;SDS011;9747;48.536;12.522;2023-07-24T12:53:06;3.22;;;2.95;;
19225;SDS011;9747;48.536;12.522;2023-07-24T12:55:33;2.97;;;2.75;;
19225;SDS011;9747;48.536;12.522;2023-07-24T12:58:00;3.15;;;2.85;;
19225;SDS011;9747;48.536;12.522;2023-07-24T13:00:28;2.92;;;2.72;;
19225;SDS011;9747;48.536;12.522;2023-07-24T13:02:56;3.38;;;3.08;;
19225;SDS011;9747;48.536;12.522;2023-07-24T13:05:25;3.38;;;3.08;;
19225;SDS011;9747;48.536;12.522;2023-07-24T13:07:53;2.80;;;2.60;;
19225;SDS011;9747;48.536;12.522;2023-07-24T13:10:20;2.95;;;2.75;;
19225;SDS011;9747;48.536;12.522;2023-07-24T13:12:48;2.88;;;2.67;;
19225;SDS011;9747;48.536;12.522;2023-07-24T13:15:15;2.88;;;2.67;;
19225;SDS011;9747;48.536;12.522;2023-07-24T13:17:43;2.70;;;2.50;;
19225;SDS011;9747;48.536;12.522;2023-07-24T13:20:10;3.00;;;2.80;;
19225;SDS011;9747;48.536;12.522;2023-07-24T13:22:40;2.65;;;2.45;;
19225;SDS011;9747;48.536;12.522;2023-07-24T13:25:08;2.67;;;2.47;;
19225;SDS011;9747;48.536;12.522;2023-07-24T13:27:35;2.83;;;2.63;;
19225;SDS011;9747;48.536;12.522;2023-07-24T13:30:03;3.08;;;2.78;;
19225;SDS011;9747;48.536;12.522;2023-07-24T13:32:31;2.97;;;2.78;;
19225;SDS011;9747;48.536;12.522;2023-07-24T13:34:58;2.55;;;2.35;;
19225;SDS011;9747;48.536;12.522;2023-07-24T13:37:26;2.90;;;2.70;;
19225;SDS011;9747;48.536;12.522;2023-07-24T13:39:55;3.08;;;2.88;;
19225;SDS011;9747;48.536;12.522;2023-07-24T13:42:22;2.70;;;2.50;;
19225;SDS011;9747;48.536;12.522;2023-07-24T13:44:50;4.07;;;2.70;;
19225;SDS011;9747;48.536;12.522;2023-07-24T13:47:17;2.90;;;2.70;;
19225;SDS011;9747;48.536;12.522;2023-07-24T13:49:46;3.00;;;2.70;;
19225;SDS011;9747;48.536;12.522;2023-07-24T13:52:13;3.22;;;2.92;;
19225;SDS011;9747;48.536;12.522;2023-07-24T13:54:42;2.83;;;2.60;;
19225;SDS011;9747;48.536;12.522;2023-07-24T13:57:12;2.67;;;2.47;;
19225;SDS011;9747;48.536;12.522;2023-07-24T13:59:39;2.92;;;2.72;;
19225;SDS011;9747;48.536;12.522;2023-07-24T14:02:07;3.40;;;2.88;;
19225;SDS011;9747;48.536;12.522;2023-07-24T14:04:34;2.90;;;2.47;;
19225;SDS011;9747;48.536;12.522;2023-07-24T14:07:02;2.58;;;2.38;;
19225;SDS011;9747;48.536;12.522;2023-07-24T14:09:29;3.08;;;2.78;;
19225;SDS011;9747;48.536;12.522;2023-07-24T14:11:58;2.83;;;2.63;;
19225;SDS011;9747;48.536;12.522;2023-07-24T14:14:27;3.13;;;2.83;;
19225;SDS011;9747;48.536;12.522;2023-07-24T14:16:54;2.70;;;2.50;;
19225;SDS011;9747;48.536;12.522;2023-07-24T14:19:21;2.60;;;2.40;;
19225;SDS011;9747;48.536;12.522;2023-07-24T14:21:49;2.78;;;2.58;;
19225;SDS011;9747;48.536;12.522;2023-07-24T14:24:17;3.13;;;2.83;;
19225;SDS011;9747;48.536;12.522;2023-07-24T14:26:44;2.60;;;2.40;;
19225;SDS011;9747;48.536;12.522;2023-07-24T14:29:12;3.15;;;2.85;;
19225;SDS011;9747;48.536;12.522;2023-07-24T14:31:43;2.67;;;2.47;;
19225;SDS011;9747;48.536;12.522;2023-07-24T14:34:11;2.83;;;2.63;;
19225;SDS011;9747;48.536;12.522;2023-07-24T14:36:39;2.63;;;2.42;;
19225;SDS011;9747;48.536;12.522;2023-07-24T14:39:06;2.85;;;2.65;;
19225;SDS011;9747;48.536;12.522;2023-07-24T14:41:34;2.80;;;2.60;;
19225;SDS011;9747;48.536;12.522;2023-07-24T14:44:01;2.40;;;2.20;;
19225;SDS011;9747;48.536;12.522;2023-07-24T14:46:29;3.10;;;2.80;;
19225;SDS011;9747;48.536;12.522;2023-07-24T14:48:57;2.47;;;2.28;;
19225;SDS011;9747;48.536;12.522;2023-07-24T14:51:25;2.80;;;2.60;;
19225;SDS011;9747;48.536;12.522;2023-07-24T14:53:52;2.85;;;2.65;;
19225;SDS011;9747;48.536;12.522;2023-07-24T14:56:20;2.95;;;2.70;;
19225;SDS011;9747;48.536;12.522;2023-07-24T14:58:47;2.30;;;2.20;;
19225;SDS011;9747;48.536;12.522;2023-07-24T15:01:14;2.78;;;2.58;;